sensor_id;sensor_type;location;lat;lon;timestamp;pressure;altitude;pressure_sealevel;temperature
71630;BMP280;59479;51.902;8.212;2023-08-30T00:02:14;100215.22;;;17.47
71630;BMP280;59479;51.902;8.212;2023-08-30T00:04:41;100219.53;;;17.45
71630;BMP280;59479;51.902;8.212;2023-08-30T00:07:07;100223.13;;;17.39
71630;BMP280;59479;51.902;8.212;2023-08-30T00:09:32;100227.44;;;17.36
71630;BMP280;59479;51.902;8.212;2023-08-30T00:11:57;100213.91;;;17.35
71630;BMP280;59479;51.902;8.212;2023-08-30T00:14:23;100219.13;;;17.31
71630;BMP280;59479;51.902;8.212;2023-08-30T00:16:48;100222.47;;;17.33
71630;BMP280;59479;51.902;8.212;2023-08-30T00:19:13;100221.53;;;17.35
71630;BMP280;59479;51.902;8.212;2023-08-30T00:21:38;100216.31;;;17.40
71630;BMP280;59479;51.902;8.212;2023-08-30T00:24:04;100223.94;;;17.40
71630;BMP280;59479;51.902;8.212;2023-08-30T00:26:30;100223.97;;;17.38
71630;BMP280;59479;51.902;8.212;2023-08-30T00:28:56;100215.50;;;17.39
71630;BMP280;59479;51.902;8.212;2023-08-30T00:31:21;100212.88;;;17.41
71630;BMP280;59479;51.902;8.212;2023-08-30T00:33:48;100212.72;;;17.45
71630;BMP280;59479;51.902;8.212;2023-08-30T00:36:13;100212.00;;;17.42
71630;BMP280;59479;51.902;8.212;2023-08-30T00:38:39;100204.44;;;17.40
71630;BMP280;59479;51.902;8.212;2023-08-30T00:41:04;100205.25;;;17.41
71630;BMP280;59479;51.902;8.212;2023-08-30T00:43:29;100201.06;;;17.40
71630;BMP280;59479;51.902;8.212;2023-08-30T00:45:54;100193.59;;;17.35
71630;BMP280;59479;51.902;8.212;2023-08-30T00:48:20;100188.47;;;17.37
71630;BMP280;59479;51.902;8.212;2023-08-30T00:50:46;100192.72;;;17.36
71630;BMP280;59479;51.902;8.212;2023-08-30T00:53:12;100188.56;;;17.34
71630;BMP280;59479;51.902;8.212;2023-08-30T00:55:37;100186.03;;;17.34
71630;BMP280;59479;51.902;8.212;2023-08-30T00:58:03;100190.25;;;17.35
71630;BMP280;59479;51.902;8.212;2023-08-30T01:00:29;100186.88;;;17.34
71630;BMP280;59479;51.902;8.212;2023-08-30T01:02:56;100179.25;;;17.34
71630;BMP280;59479;51.902;8.212;2023-08-30T01:05:21;100184.25;;;17.36
71630;BMP280;59479;51.902;8.212;2023-08-30T01:07:47;100185.06;;;17.38
71630;BMP280;59479;51.902;8.212;2023-08-30T01:10:13;100182.72;;;17.32
71630;BMP280;59479;51.902;8.212;2023-08-30T01:12:49;100178.50;;;17.31
71630;BMP280;59479;51.902;8.212;2023-08-30T01:15:20;100179.53;;;17.25
71630;BMP280;59479;51.902;8.212;2023-08-30T01:17:48;100178.81;;;17.22
71630;BMP280;59479;51.902;8.212;2023-08-30T01:20:15;100181.03;;;17.31
71630;BMP280;59479;51.902;8.212;2023-08-30T01:22:48;100185.25;;;17.32
71630;BMP280;59479;51.902;8.212;2023-08-30T01:25:43;100177.72;;;17.29
71630;BMP280;59479;51.902;8.212;2023-08-30T01:28:11;100179.44;;;17.28
71630;BMP280;59479;51.902;8.212;2023-08-30T01:30:40;100180.28;;;17.29
71630;BMP280;59479;51.902;8.212;2023-08-30T01:33:07;100174.31;;;17.30
71630;BMP280;59479;51.902;8.212;2023-08-30T01:35:34;100175.19;;;17.29
71630;BMP280;59479;51.902;8.212;2023-08-30T01:38:03;100179.41;;;17.30
71630;BMP280;59479;51.902;8.212;2023-08-30T01:40:31;100171.78;;;17.30
71630;BMP280;59479;51.902;8.212;2023-08-30T01:42:57;100178.50;;;17.31
71630;BMP280;59479;51.902;8.212;2023-08-30T01:45:23;100173.31;;;17.34
71630;BMP280;59479;51.902;8.212;2023-08-30T01:47:50;100169.97;;;17.33
71630;BMP280;59479;51.902;8.212;2023-08-30T01:50:18;100161.47;;;17.34
71630;BMP280;59479;51.902;8.212;2023-08-30T01:52:44;100167.44;;;17.33
71630;BMP280;59479;51.902;8.212;2023-08-30T01:55:11;100157.25;;;17.33
71630;BMP280;59479;51.902;8.212;2023-08-30T01:57:38;100164.06;;;17.33
71630;BMP280;59479;51.902;8.212;2023-08-30T02:00:04;100172.50;;;17.33
71630;BMP280;59479;51.902;8.212;2023-08-30T02:02:30;100170.84;;;17.32
71630;BMP280;59479;51.902;8.212;2023-08-30T02:04:56;100165.75;;;17.32
71630;BMP280;59479;51.902;8.212;2023-08-30T02:07:37;100173.41;;;17.31
71630;BMP280;59479;51.902;8.212;2023-08-30T02:10:10;100169.25;;;17.30
71630;BMP280;59479;51.902;8.212;2023-08-30T02:12:49;100165.03;;;17.29
71630;BMP280;59479;51.902;8.212;2023-08-30T02:15:16;100167.63;;;17.27
71630;BMP280;59479;51.902;8.212;2023-08-30T02:17:42;100168.56;;;17.25
71630;BMP280;59479;51.902;8.212;2023-08-30T02:20:09;100157.50;;;17.26
71630;BMP280;59479;51.902;8.212;2023-08-30T02:22:35;100160.03;;;17.26
71630;BMP280;59479;51.902;8.212;2023-08-30T02:25:00;100160.94;;;17.25
71630;BMP280;59479;51.902;8.212;2023-08-30T02:27:32;100156.78;;;17.23
71630;BMP280;59479;51.902;8.212;2023-08-30T02:29:58;100161.94;;;17.21
71630;BMP280;59479;51.902;8.212;2023-08-30T02:32:23;100163.63;;;17.21
71630;BMP280;59479;51.902;8.212;2023-08-30T02:34:50;100162.03;;;17.18
71630;BMP280;59479;51.902;8.212;2023-08-30T02:37:16;100169.66;;;17.18
71630;BMP280;59479;51.902;8.212;2023-08-30T02:39:41;100167.13;;;17.18
71630;BMP280;59479;51.902;8.212;2023-08-30T02:42:07;100166.22;;;17.19
71630;BMP280;59479;51.902;8.212;2023-08-30T02:44:32;100166.22;;;17.18
71630;BMP280;59479;51.902;8.212;2023-08-30T02:46:57;100161.28;;;17.15
71630;BMP280;59479;51.902;8.212;2023-08-30T02:49:22;100157.13;;;17.12
71630;BMP280;59479;51.902;8.212;2023-08-30T02:51:48;100161.44;;;17.10
71630;BMP280;59479;51.902;8.212;2023-08-30T02:54:13;100159.84;;;17.08
71630;BMP280;59479;51.902;8.212;2023-08-30T02:56:40;100167.50;;;17.06
71630;BMP280;59479;51.902;8.212;2023-08-30T02:59:05;100166.69;;;17.04
71630;BMP280;59479;51.902;8.212;2023-08-30T03:01:31;100161.69;;;17.03
71630;BMP280;59479;51.902;8.212;2023-08-30T03:03:56;100166.81;;;17.01
71630;BMP280;59479;51.902;8.212;2023-08-30T03:06:21;100163.56;;;16.98
71630;BMP280;59479;51.902;8.212;2023-08-30T03:08:47;100164.47;;;16.95
71630;BMP280;59479;51.902;8.212;2023-08-30T03:11:13;100173.84;;;16.93
71630;BMP280;59479;51.902;8.212;2023-08-30T03:13:39;100168.00;;;16.91
71630;BMP280;59479;51.902;8.212;2023-08-30T03:16:13;100164.59;;;16.91
71630;BMP280;59479;51.902;8.212;2023-08-30T03:18:40;100165.50;;;16.90
71630;BMP280;59479;51.902;8.212;2023-08-30T03:21:05;100164.72;;;16.88
71630;BMP280;59479;51.902;8.212;2023-08-30T03:23:31;100161.34;;;16.87
71630;BMP280;59479;51.902;8.212;2023-08-30T03:26:06;100163.88;;;16.87
71630;BMP280;59479;51.902;8.212;2023-08-30T03:28:32;100166.53;;;16.84
71630;BMP280;59479;51.902;8.212;2023-08-30T03:30:57;100169.19;;;16.82
71630;BMP280;59479;51.902;8.212;2023-08-30T03:33:22;100169.22;;;16.80
71630;BMP280;59479;51.902;8.212;2023-08-30T03:35:48;100164.97;;;16.81
71630;BMP280;59479;51.902;8.212;2023-08-30T03:38:13;100160.88;;;16.77
71630;BMP280;59479;51.902;8.212;2023-08-30T03:40:38;100151.75;;;16.71
71630;BMP280;59479;51.902;8.212;2023-08-30T03:43:04;100153.44;;;16.71
71630;BMP280;59479;51.902;8.212;2023-08-30T03:45:34;100157.69;;;16.70
71630;BMP280;59479;51.902;8.212;2023-08-30T03:47:59;100153.44;;;16.71
71630;BMP280;59479;51.902;8.212;2023-08-30T03:50:25;100155.22;;;16.69
71630;BMP280;59479;51.902;8.212;2023-08-30T03:52:50;100154.38;;;16.68
71630;BMP280;59479;51.902;8.212;2023-08-30T03:55:16;100150.13;;;16.69
71630;BMP280;59479;51.902;8.212;2023-08-30T03:57:41;100155.31;;;16.66
71630;BMP280;59479;51.902;8.212;2023-08-30T04:00:06;100149.50;;;16.62
71630;BMP280;59479;51.902;8.212;2023-08-30T04:02:32;100156.38;;;16.59
71630;BMP280;59479;51.902;8.212;2023-08-30T04:04:57;100142.88;;;16.58
71630;BMP280;59479;51.902;8.212;2023-08-30T04:07:23;100146.19;;;16.60
71630;BMP280;59479;51.902;8.212;2023-08-30T04:09:49;100147.00;;;16.61
71630;BMP280;59479;51.902;8.212;2023-08-30T04:12:14;100141.97;;;16.59
71630;BMP280;59479;51.902;8.212;2023-08-30T04:14:40;100139.56;;;16.56
71630;BMP280;59479;51.902;8.212;2023-08-30T04:17:05;100144.72;;;16.53
71630;BMP280;59479;51.902;8.212;2023-08-30T04:19:30;100143.22;;;16.48
71630;BMP280;59479;51.902;8.212;2023-08-30T04:21:56;100131.41;;;16.47
71630;BMP280;59479;51.902;8.212;2023-08-30T04:24:21;100133.84;;;16.50
71630;BMP280;59479;51.902;8.212;2023-08-30T04:26:47;100133.00;;;16.49
71630;BMP280;59479;51.902;8.212;2023-08-30T04:29:16;100142.28;;;16.50
71630;BMP280;59479;51.902;8.212;2023-08-30T04:31:43;100127.06;;;16.50
71630;BMP280;59479;51.902;8.212;2023-08-30T04:34:08;100141.47;;;16.50
71630;BMP280;59479;51.902;8.212;2023-08-30T04:36:33;100138.06;;;16.49
71630;BMP280;59479;51.902;8.212;2023-08-30T04:38:59;100136.44;;;16.48
71630;BMP280;59479;51.902;8.212;2023-08-30T04:41:24;100125.56;;;16.45
71630;BMP280;59479;51.902;8.212;2023-08-30T04:43:49;100133.16;;;16.45
71630;BMP280;59479;51.902;8.212;2023-08-30T04:46:14;100134.78;;;16.46
71630;BMP280;59479;51.902;8.212;2023-08-30T04:48:40;100129.84;;;16.43
71630;BMP280;59479;51.902;8.212;2023-08-30T04:51:05;100131.50;;;16.44
71630;BMP280;59479;51.902;8.212;2023-08-30T04:53:30;100134.91;;;16.43
71630;BMP280;59479;51.902;8.212;2023-08-30T04:55:56;100125.63;;;16.42
71630;BMP280;59479;51.902;8.212;2023-08-30T04:58:22;100131.78;;;16.35
71630;BMP280;59479;51.902;8.212;2023-08-30T05:00:47;100136.25;;;16.27
71630;BMP280;59479;51.902;8.212;2023-08-30T05:03:12;100135.59;;;16.21
71630;BMP280;59479;51.902;8.212;2023-08-30T05:05:38;100127.19;;;16.19
71630;BMP280;59479;51.902;8.212;2023-08-30T05:08:04;100122.94;;;16.19
71630;BMP280;59479;51.902;8.212;2023-08-30T05:10:29;100118.75;;;16.20
71630;BMP280;59479;51.902;8.212;2023-08-30T05:12:54;100122.16;;;16.17
71630;BMP280;59479;51.902;8.212;2023-08-30T05:15:20;100130.66;;;16.16
71630;BMP280;59479;51.902;8.212;2023-08-30T05:17:45;100124.84;;;16.13
71630;BMP280;59479;51.902;8.212;2023-08-30T05:20:11;100130.78;;;16.12
71630;BMP280;59479;51.902;8.212;2023-08-30T05:22:36;100124.84;;;16.13
71630;BMP280;59479;51.902;8.212;2023-08-30T05:25:01;100119.72;;;16.14
71630;BMP280;59479;51.902;8.212;2023-08-30T05:27:27;100117.03;;;16.19
71630;BMP280;59479;51.902;8.212;2023-08-30T05:29:53;100113.72;;;16.17
71630;BMP280;59479;51.902;8.212;2023-08-30T05:32:18;100116.22;;;16.18
71630;BMP280;59479;51.902;8.212;2023-08-30T05:34:44;100109.69;;;16.11
71630;BMP280;59479;51.902;8.212;2023-08-30T05:37:09;100111.41;;;16.09
71630;BMP280;59479;51.902;8.212;2023-08-30T05:39:35;100109.03;;;16.05
71630;BMP280;59479;51.902;8.212;2023-08-30T05:42:00;100104.97;;;15.99
71630;BMP280;59479;51.902;8.212;2023-08-30T05:44:25;100104.09;;;16.00
71630;BMP280;59479;51.902;8.212;2023-08-30T05:46:51;100103.31;;;15.98
71630;BMP280;59479;51.902;8.212;2023-08-30T05:49:16;100106.50;;;16.05
71630;BMP280;59479;51.902;8.212;2023-08-30T05:51:41;100104.78;;;16.05
71630;BMP280;59479;51.902;8.212;2023-08-30T05:54:07;100094.56;;;16.08
71630;BMP280;59479;51.902;8.212;2023-08-30T05:56:32;100091.03;;;16.12
71630;BMP280;59479;51.902;8.212;2023-08-30T05:58:57;100085.06;;;16.15
71630;BMP280;59479;51.902;8.212;2023-08-30T06:01:23;100097.63;;;16.18
71630;BMP280;59479;51.902;8.212;2023-08-30T06:03:48;100087.44;;;16.19
71630;BMP280;59479;51.902;8.212;2023-08-30T06:06:16;100090.81;;;16.21
71630;BMP280;59479;51.902;8.212;2023-08-30T06:08:42;100083.22;;;16.21
71630;BMP280;59479;51.902;8.212;2023-08-30T06:11:07;100083.09;;;16.24
71630;BMP280;59479;51.902;8.212;2023-08-30T06:13:33;100075.47;;;16.24
71630;BMP280;59479;51.902;8.212;2023-08-30T06:15:58;100069.50;;;16.27
71630;BMP280;59479;51.902;8.212;2023-08-30T06:18:24;100062.69;;;16.29
71630;BMP280;59479;51.902;8.212;2023-08-30T06:20:49;100062.59;;;16.32
71630;BMP280;59479;51.902;8.212;2023-08-30T06:23:17;100060.00;;;16.33
71630;BMP280;59479;51.902;8.212;2023-08-30T06:25:43;100067.44;;;16.38
71630;BMP280;59479;51.902;8.212;2023-08-30T06:28:08;100064.13;;;16.36
71630;BMP280;59479;51.902;8.212;2023-08-30T06:30:34;100064.13;;;16.36
71630;BMP280;59479;51.902;8.212;2023-08-30T06:32:59;100076.84;;;16.34
71630;BMP280;59479;51.902;8.212;2023-08-30T06:35:25;100067.56;;;16.35
71630;BMP280;59479;51.902;8.212;2023-08-30T06:37:50;100064.13;;;16.36
71630;BMP280;59479;51.902;8.212;2023-08-30T06:40:16;100066.72;;;16.34
71630;BMP280;59479;51.902;8.212;2023-08-30T06:42:41;100063.25;;;16.37
71630;BMP280;59479;51.902;8.212;2023-08-30T06:45:07;100064.03;;;16.39
71630;BMP280;59479;51.902;8.212;2023-08-30T06:47:32;100061.69;;;16.33
71630;BMP280;59479;51.902;8.212;2023-08-30T06:49:58;100059.88;;;16.36
71630;BMP280;59479;51.902;8.212;2023-08-30T06:52:24;100062.59;;;16.32
71630;BMP280;59479;51.902;8.212;2023-08-30T06:54:49;100064.00;;;16.40
71630;BMP280;59479;51.902;8.212;2023-08-30T06:57:15;100057.22;;;16.40
71630;BMP280;59479;51.902;8.212;2023-08-30T06:59:40;100046.97;;;16.43
71630;BMP280;59479;51.902;8.212;2023-08-30T07:02:05;100054.38;;;16.49
71630;BMP280;59479;51.902;8.212;2023-08-30T07:04:31;100052.78;;;16.47
71630;BMP280;59479;51.902;8.212;2023-08-30T07:06:56;100050.03;;;16.53
71630;BMP280;59479;51.902;8.212;2023-08-30T07:09:21;100053.34;;;16.55
71630;BMP280;59479;51.902;8.212;2023-08-30T07:11:53;100044.03;;;16.55
71630;BMP280;59479;51.902;8.212;2023-08-30T07:14:18;100048.34;;;16.53
71630;BMP280;59479;51.902;8.212;2023-08-30T07:16:45;100042.94;;;16.62
71630;BMP280;59479;51.902;8.212;2023-08-30T07:19:11;100038.50;;;16.69
71630;BMP280;59479;51.902;8.212;2023-08-30T07:21:36;100036.53;;;16.77
71630;BMP280;59479;51.902;8.212;2023-08-30T07:24:04;100039.06;;;16.77
71630;BMP280;59479;51.902;8.212;2023-08-30T07:26:30;100035.53;;;16.81
71630;BMP280;59479;51.902;8.212;2023-08-30T07:28:55;100038.75;;;16.85
71630;BMP280;59479;51.902;8.212;2023-08-30T07:31:20;100032.69;;;16.89
71630;BMP280;59479;51.902;8.212;2023-08-30T07:33:46;100040.19;;;16.92
71630;BMP280;59479;51.902;8.212;2023-08-30T07:36:12;100028.44;;;16.90
71630;BMP280;59479;51.902;8.212;2023-08-30T07:38:37;100024.00;;;16.96
71630;BMP280;59479;51.902;8.212;2023-08-30T07:41:03;100038.28;;;16.99
71630;BMP280;59479;51.902;8.212;2023-08-30T07:43:28;100038.84;;;17.07
71630;BMP280;59479;51.902;8.212;2023-08-30T07:45:53;100032.72;;;17.12
71630;BMP280;59479;51.902;8.212;2023-08-30T07:48:19;100027.06;;;17.04
71630;BMP280;59479;51.902;8.212;2023-08-30T07:50:44;100025.03;;;17.14
71630;BMP280;59479;51.902;8.212;2023-08-30T07:53:09;100027.47;;;17.17
71630;BMP280;59479;51.902;8.212;2023-08-30T07:55:36;100024.81;;;17.21
71630;BMP280;59479;51.902;8.212;2023-08-30T07:58:01;100031.53;;;17.22
71630;BMP280;59479;51.902;8.212;2023-08-30T08:00:29;100023.53;;;17.32
71630;BMP280;59479;51.902;8.212;2023-08-30T08:02:54;100025.09;;;17.36
71630;BMP280;59479;51.902;8.212;2023-08-30T08:05:20;100024.03;;;17.42
71630;BMP280;59479;51.902;8.212;2023-08-30T08:07:45;100030.63;;;17.46
71630;BMP280;59479;51.902;8.212;2023-08-30T08:10:11;100032.72;;;17.58
71630;BMP280;59479;51.902;8.212;2023-08-30T08:12:36;100018.03;;;17.66
71630;BMP280;59479;51.902;8.212;2023-08-30T08:15:02;100018.88;;;17.66
71630;BMP280;59479;51.902;8.212;2023-08-30T08:17:28;100024.13;;;17.62
71630;BMP280;59479;51.902;8.212;2023-08-30T08:19:53;100031.50;;;17.67
71630;BMP280;59479;51.902;8.212;2023-08-30T08:22:19;100029.84;;;17.67
71630;BMP280;59479;51.902;8.212;2023-08-30T08:24:44;100027.72;;;17.77
71630;BMP280;59479;51.902;8.212;2023-08-30T08:27:11;100018.75;;;17.90
71630;BMP280;59479;51.902;8.212;2023-08-30T08:29:37;100021.56;;;18.04
71630;BMP280;59479;51.902;8.212;2023-08-30T08:32:03;100018.50;;;17.96
71630;BMP280;59479;51.902;8.212;2023-08-30T08:34:28;100017.19;;;18.08
71630;BMP280;59479;51.902;8.212;2023-08-30T08:36:54;100017.13;;;18.09
71630;BMP280;59479;51.902;8.212;2023-08-30T08:39:19;100018.03;;;18.08
71630;BMP280;59479;51.902;8.212;2023-08-30T08:41:45;100012.94;;;18.08
71630;BMP280;59479;51.902;8.212;2023-08-30T08:44:11;100002.41;;;18.17
71630;BMP280;59479;51.902;8.212;2023-08-30T08:46:39;99995.97;;;18.30
71630;BMP280;59479;51.902;8.212;2023-08-30T08:49:14;99995.97;;;18.30
71630;BMP280;59479;51.902;8.212;2023-08-30T08:51:40;99997.69;;;18.29
71630;BMP280;59479;51.902;8.212;2023-08-30T08:54:05;99988.75;;;18.39
71630;BMP280;59479;51.902;8.212;2023-08-30T08:56:32;99985.41;;;18.58
71630;BMP280;59479;51.902;8.212;2023-08-30T08:58:58;99989.59;;;18.79
71630;BMP280;59479;51.902;8.212;2023-08-30T09:01:24;99987.41;;;18.90
71630;BMP280;59479;51.902;8.212;2023-08-30T09:03:50;99986.75;;;19.05
71630;BMP280;59479;51.902;8.212;2023-08-30T09:06:16;99984.66;;;19.14
71630;BMP280;59479;51.902;8.212;2023-08-30T09:08:41;99985.09;;;19.22
71630;BMP280;59479;51.902;8.212;2023-08-30T09:11:06;99981.25;;;19.32
71630;BMP280;59479;51.902;8.212;2023-08-30T09:13:32;99981.13;;;19.35
71630;BMP280;59479;51.902;8.212;2023-08-30T09:15:57;99975.75;;;19.41
71630;BMP280;59479;51.902;8.212;2023-08-30T09:18:23;99973.16;;;19.42
71630;BMP280;59479;51.902;8.212;2023-08-30T09:20:53;99979.59;;;19.49
71630;BMP280;59479;51.902;8.212;2023-08-30T09:23:19;99974.97;;;19.57
71630;BMP280;59479;51.902;8.212;2023-08-30T09:25:45;99972.00;;;19.66
71630;BMP280;59479;51.902;8.212;2023-08-30T09:28:11;99975.59;;;19.79
71630;BMP280;59479;51.902;8.212;2023-08-30T09:30:36;99964.09;;;19.89
71630;BMP280;59479;51.902;8.212;2023-08-30T09:33:02;99970.16;;;20.05
71630;BMP280;59479;51.902;8.212;2023-08-30T09:35:28;99973.44;;;20.07
71630;BMP280;59479;51.902;8.212;2023-08-30T09:37:53;99972.31;;;20.12
71630;BMP280;59479;51.902;8.212;2023-08-30T09:40:19;99968.06;;;20.13
71630;BMP280;59479;51.902;8.212;2023-08-30T09:42:45;99975.38;;;20.19
71630;BMP280;59479;51.902;8.212;2023-08-30T09:45:22;99971.75;;;20.24
71630;BMP280;59479;51.902;8.212;2023-08-30T09:47:49;99964.75;;;20.27
71630;BMP280;59479;51.902;8.212;2023-08-30T09:50:18;99957.59;;;20.34
71630;BMP280;59479;51.902;8.212;2023-08-30T09:52:46;99954.16;;;20.35
71630;BMP280;59479;51.902;8.212;2023-08-30T09:55:11;99951.75;;;20.32
71630;BMP280;59479;51.902;8.212;2023-08-30T09:57:37;99951.38;;;20.39
71630;BMP280;59479;51.902;8.212;2023-08-30T10:00:03;99953.75;;;20.42
71630;BMP280;59479;51.902;8.212;2023-08-30T10:02:31;99947.69;;;20.45
71630;BMP280;59479;51.902;8.212;2023-08-30T10:04:57;99946.31;;;20.55
71630;BMP280;59479;51.902;8.212;2023-08-30T10:07:23;99945.50;;;20.54
71630;BMP280;59479;51.902;8.212;2023-08-30T10:09:50;99940.06;;;20.60
71630;BMP280;59479;51.902;8.212;2023-08-30T10:12:20;99948.66;;;20.59
71630;BMP280;59479;51.902;8.212;2023-08-30T10:14:47;99945.00;;;20.65
71630;BMP280;59479;51.902;8.212;2023-08-30T10:17:13;99946.84;;;20.61
71630;BMP280;59479;51.902;8.212;2023-08-30T10:19:41;99931.88;;;20.70
71630;BMP280;59479;51.902;8.212;2023-08-30T10:22:06;99940.31;;;20.72
71630;BMP280;59479;51.902;8.212;2023-08-30T10:24:39;99933.41;;;20.74
71630;BMP280;59479;51.902;8.212;2023-08-30T10:27:08;99929.91;;;20.75
71630;BMP280;59479;51.902;8.212;2023-08-30T10:29:35;99927.22;;;20.78
71630;BMP280;59479;51.902;8.212;2023-08-30T10:32:03;99920.56;;;20.76
71630;BMP280;59479;51.902;8.212;2023-08-30T10:34:35;99928.44;;;20.71
71630;BMP280;59479;51.902;8.212;2023-08-30T10:37:02;99927.13;;;20.80
71630;BMP280;59479;51.902;8.212;2023-08-30T10:39:36;99921.88;;;20.83
71630;BMP280;59479;51.902;8.212;2023-08-30T10:42:10;99919.72;;;20.75
71630;BMP280;59479;51.902;8.212;2023-08-30T10:44:52;99923.50;;;20.68
71630;BMP280;59479;51.902;8.212;2023-08-30T10:47:18;99922.66;;;20.68
71630;BMP280;59479;51.902;8.212;2023-08-30T10:49:46;99918.16;;;20.56
71630;BMP280;59479;51.902;8.212;2023-08-30T10:52:12;99919.06;;;20.55
71630;BMP280;59479;51.902;8.212;2023-08-30T10:54:37;99924.69;;;20.62
71630;BMP280;59479;51.902;8.212;2023-08-30T10:57:12;99915.28;;;20.62
71630;BMP280;59479;51.902;8.212;2023-08-30T10:59:38;99915.91;;;20.67
71630;BMP280;59479;51.902;8.212;2023-08-30T11:02:04;99910.38;;;20.59
71630;BMP280;59479;51.902;8.212;2023-08-30T11:04:30;99900.44;;;20.53
71630;BMP280;59479;51.902;8.212;2023-08-30T11:06:56;99896.59;;;20.62
71630;BMP280;59479;51.902;8.212;2023-08-30T11:09:24;99896.47;;;20.65
71630;BMP280;59479;51.902;8.212;2023-08-30T11:11:50;99892.72;;;20.55
71630;BMP280;59479;51.902;8.212;2023-08-30T11:14:16;99880.69;;;20.57
71630;BMP280;59479;51.902;8.212;2023-08-30T11:16:42;99884.84;;;20.42
71630;BMP280;59479;51.902;8.212;2023-08-30T11:19:09;99879.44;;;20.48
71630;BMP280;59479;51.902;8.212;2023-08-30T11:21:37;99877.63;;;20.50
71630;BMP280;59479;51.902;8.212;2023-08-30T11:24:03;99878.44;;;20.67
71630;BMP280;59479;51.902;8.212;2023-08-30T11:26:29;99869.22;;;20.65
71630;BMP280;59479;51.902;8.212;2023-08-30T11:28:54;99873.53;;;20.63
71630;BMP280;59479;51.902;8.212;2023-08-30T11:31:21;99871.25;;;20.74
71630;BMP280;59479;51.902;8.212;2023-08-30T11:33:51;99866.16;;;20.74
71630;BMP280;59479;51.902;8.212;2023-08-30T11:36:18;99865.13;;;20.78
71630;BMP280;59479;51.902;8.212;2023-08-30T11:38:44;99867.59;;;20.79
71630;BMP280;59479;51.902;8.212;2023-08-30T11:41:10;99853.81;;;20.82
71630;BMP280;59479;51.902;8.212;2023-08-30T11:43:36;99864.31;;;20.77
71630;BMP280;59479;51.902;8.212;2023-08-30T11:46:03;99860.50;;;20.69
71630;BMP280;59479;51.902;8.212;2023-08-30T11:48:28;99865.75;;;20.66
71630;BMP280;59479;51.902;8.212;2023-08-30T11:50:54;99859.44;;;20.73
71630;BMP280;59479;51.902;8.212;2023-08-30T11:53:19;99859.09;;;20.79
71630;BMP280;59479;51.902;8.212;2023-08-30T11:55:45;99862.56;;;20.78
71630;BMP280;59479;51.902;8.212;2023-08-30T11:58:10;99861.75;;;20.77
71630;BMP280;59479;51.902;8.212;2023-08-30T12:00:36;99861.47;;;20.82
71630;BMP280;59479;51.902;8.212;2023-08-30T12:03:05;99863.78;;;20.71
71630;BMP280;59479;51.902;8.212;2023-08-30T12:05:30;99866.34;;;20.71
71630;BMP280;59479;51.902;8.212;2023-08-30T12:08:02;99879.84;;;20.73
71630;BMP280;59479;51.902;8.212;2023-08-30T12:10:28;99897.09;;;20.53
71630;BMP280;59479;51.902;8.212;2023-08-30T12:12:55;99900.63;;;20.33
71630;BMP280;59479;51.902;8.212;2023-08-30T12:15:22;99897.41;;;20.30
71630;BMP280;59479;51.902;8.212;2023-08-30T12:17:49;99888.94;;;20.29
71630;BMP280;59479;51.902;8.212;2023-08-30T12:20:16;99895.97;;;20.41
71630;BMP280;59479;51.902;8.212;2023-08-30T12:22:43;99895.22;;;20.39
71630;BMP280;59479;51.902;8.212;2023-08-30T12:25:21;99900.47;;;20.36
71630;BMP280;59479;51.902;8.212;2023-08-30T12:27:48;99893.78;;;20.34
71630;BMP280;59479;51.902;8.212;2023-08-30T12:30:15;99897.50;;;20.28
71630;BMP280;59479;51.902;8.212;2023-08-30T12:32:41;99889.19;;;20.08
71630;BMP280;59479;51.902;8.212;2023-08-30T12:35:07;99888.38;;;20.08
71630;BMP280;59479;51.902;8.212;2023-08-30T12:37:32;99886.09;;;20.19
71630;BMP280;59479;51.902;8.212;2023-08-30T12:39:58;99902.94;;;20.06
71630;BMP280;59479;51.902;8.212;2023-08-30T12:42:23;99896.31;;;20.02
71630;BMP280;59479;51.902;8.212;2023-08-30T12:44:48;99893.97;;;19.97
71630;BMP280;59479;51.902;8.212;2023-08-30T12:47:14;99894.00;;;19.79
71630;BMP280;59479;51.902;8.212;2023-08-30T12:49:39;99901.94;;;19.91
71630;BMP280;59479;51.902;8.212;2023-08-30T12:52:05;99908.91;;;19.88
71630;BMP280;59479;51.902;8.212;2023-08-30T12:54:31;99905.00;;;19.81
71630;BMP280;59479;51.902;8.212;2023-08-30T12:56:56;99910.28;;;19.95
71630;BMP280;59479;51.902;8.212;2023-08-30T12:59:21;99913.75;;;19.76
71630;BMP280;59479;51.902;8.212;2023-08-30T13:01:47;99912.66;;;19.81
71630;BMP280;59479;51.902;8.212;2023-08-30T13:04:12;99908.28;;;19.66
71630;BMP280;59479;51.902;8.212;2023-08-30T13:06:37;99904.13;;;19.64
71630;BMP280;59479;51.902;8.212;2023-08-30T13:09:03;99900.50;;;19.69
71630;BMP280;59479;51.902;8.212;2023-08-30T13:11:28;99913.13;;;19.71
71630;BMP280;59479;51.902;8.212;2023-08-30T13:13:55;99903.03;;;19.69
71630;BMP280;59479;51.902;8.212;2023-08-30T13:16:23;99910.50;;;19.72
71630;BMP280;59479;51.902;8.212;2023-08-30T13:18:48;99911.38;;;19.73
71630;BMP280;59479;51.902;8.212;2023-08-30T13:21:13;99905.88;;;19.63
71630;BMP280;59479;51.902;8.212;2023-08-30T13:23:39;99917.56;;;19.67
71630;BMP280;59479;51.902;8.212;2023-08-30T13:26:04;99913.38;;;19.66
71630;BMP280;59479;51.902;8.212;2023-08-30T13:28:29;99909.75;;;19.70
71630;BMP280;59479;51.902;8.212;2023-08-30T13:30:55;99908.75;;;19.74
71630;BMP280;59479;51.902;8.212;2023-08-30T13:33:20;99910.16;;;19.79
71630;BMP280;59479;51.902;8.212;2023-08-30T13:35:49;99905.28;;;19.75
71630;BMP280;59479;51.902;8.212;2023-08-30T13:38:18;99902.78;;;19.74
71630;BMP280;59479;51.902;8.212;2023-08-30T13:40:44;99902.88;;;19.72
71630;BMP280;59479;51.902;8.212;2023-08-30T13:43:09;99894.25;;;19.75
71630;BMP280;59479;51.902;8.212;2023-08-30T13:45:35;99892.59;;;19.74
71630;BMP280;59479;51.902;8.212;2023-08-30T13:48:00;99900.31;;;19.72
71630;BMP280;59479;51.902;8.212;2023-08-30T13:50:26;99897.03;;;19.70
71630;BMP280;59479;51.902;8.212;2023-08-30T13:52:56;99890.19;;;19.71
71630;BMP280;59479;51.902;8.212;2023-08-30T13:55:21;99885.00;;;19.72
71630;BMP280;59479;51.902;8.212;2023-08-30T13:57:46;99885.47;;;19.63